sensor_id;sensor_type;location;lat;lon;timestamp;temperature;humidity
6496;DHT22;3281;47.658;9.166;2023-04-01T00:00:00;9.00;1.00
6496;DHT22;3281;47.658;9.166;2023-04-01T00:02:27;8.90;1.00
6496;DHT22;3281;47.658;9.166;2023-04-01T00:04:53;8.90;1.00
6496;DHT22;3281;47.658;9.166;2023-04-01T00:07:20;8.90;1.00
6496;DHT22;3281;47.658;9.166;2023-04-01T00:09:47;8.80;1.00
6496;DHT22;3281;47.658;9.166;2023-04-01T00:12:16;8.80;1.00
6496;DHT22;3281;47.658;9.166;2023-04-01T00:14:42;8.80;1.00
6496;DHT22;3281;47.658;9.166;2023-04-01T00:17:09;8.80;1.00
6496;DHT22;3281;47.658;9.166;2023-04-01T00:19:36;8.80;1.00
6496;DHT22;3281;47.658;9.166;2023-04-01T00:22:03;8.80;1.00
6496;DHT22;3281;47.658;9.166;2023-04-01T00:24:30;8.80;1.00
6496;DHT22;3281;47.658;9.166;2023-04-01T00:26:57;8.70;1.00
6496;DHT22;3281;47.658;9.166;2023-04-01T00:29:25;8.60;1.00
6496;DHT22;3281;47.658;9.166;2023-04-01T00:31:55;8.40;1.00
6496;DHT22;3281;47.658;9.166;2023-04-01T00:34:22;8.30;1.00
6496;DHT22;3281;47.658;9.166;2023-04-01T00:36:49;8.30;1.00
6496;DHT22;3281;47.658;9.166;2023-04-01T00:39:15;8.10;1.00
6496;DHT22;3281;47.658;9.166;2023-04-01T00:41:42;8.10;1.00
6496;DHT22;3281;47.658;9.166;2023-04-01T00:44:16;8.10;1.00
6496;DHT22;3281;47.658;9.166;2023-04-01T00:46:45;8.10;1.00
6496;DHT22;3281;47.658;9.166;2023-04-01T00:49:12;8.10;1.00
6496;DHT22;3281;47.658;9.166;2023-04-01T00:51:41;8.10;1.00
6496;DHT22;3281;47.658;9.166;2023-04-01T00:54:09;8.00;1.00
6496;DHT22;3281;47.658;9.166;2023-04-01T00:56:38;8.00;1.00
6496;DHT22;3281;47.658;9.166;2023-04-01T00:59:10;7.90;1.00
6496;DHT22;3281;47.658;9.166;2023-04-01T01:01:37;7.90;1.00
6496;DHT22;3281;47.658;9.166;2023-04-01T01:04:06;7.80;1.00
6496;DHT22;3281;47.658;9.166;2023-04-01T01:06:39;7.80;1.00
6496;DHT22;3281;47.658;9.166;2023-04-01T01:12:08;7.80;1.00
6496;DHT22;3281;47.658;9.166;2023-04-01T01:14:45;7.80;1.00
6496;DHT22;3281;47.658;9.166;2023-04-01T01:17:22;7.70;1.00
6496;DHT22;3281;47.658;9.166;2023-04-01T01:20:17;7.80;1.00
6496;DHT22;3281;47.658;9.166;2023-04-01T01:22:52;7.70;1.00
6496;DHT22;3281;47.658;9.166;2023-04-01T01:25:39;7.70;1.00
6496;DHT22;3281;47.658;9.166;2023-04-01T01:28:29;7.70;1.00
6496;DHT22;3281;47.658;9.166;2023-04-01T01:31:02;7.70;1.00
6496;DHT22;3281;47.658;9.166;2023-04-01T01:33:40;7.80;1.00
6496;DHT22;3281;47.658;9.166;2023-04-01T01:36:12;7.70;1.00
6496;DHT22;3281;47.658;9.166;2023-04-01T01:38:40;7.80;1.00
6496;DHT22;3281;47.658;9.166;2023-04-01T01:41:08;7.80;1.00
6496;DHT22;3281;47.658;9.166;2023-04-01T01:43:39;7.80;1.00
6496;DHT22;3281;47.658;9.166;2023-04-01T01:46:10;7.80;1.00
6496;DHT22;3281;47.658;9.166;2023-04-01T01:48:37;7.80;1.00
6496;DHT22;3281;47.658;9.166;2023-04-01T01:51:06;7.80;1.00
6496;DHT22;3281;47.658;9.166;2023-04-01T01:53:34;7.80;1.00
6496;DHT22;3281;47.658;9.166;2023-04-01T01:56:02;7.90;1.00
6496;DHT22;3281;47.658;9.166;2023-04-01T01:58:31;8.00;1.00
6496;DHT22;3281;47.658;9.166;2023-04-01T02:01:02;8.00;1.00
6496;DHT22;3281;47.658;9.166;2023-04-01T02:03:31;8.00;1.00
6496;DHT22;3281;47.658;9.166;2023-04-01T02:06:00;8.00;1.00
6496;DHT22;3281;47.658;9.166;2023-04-01T02:08:31;8.00;1.00
6496;DHT22;3281;47.658;9.166;2023-04-01T02:11:06;8.10;1.00
6496;DHT22;3281;47.658;9.166;2023-04-01T02:13:37;8.10;1.00
6496;DHT22;3281;47.658;9.166;2023-04-01T02:16:09;8.10;1.00
6496;DHT22;3281;47.658;9.166;2023-04-01T02:18:38;8.10;1.00
6496;DHT22;3281;47.658;9.166;2023-04-01T02:21:06;8.10;1.00
6496;DHT22;3281;47.658;9.166;2023-04-01T02:23:34;8.10;1.00
6496;DHT22;3281;47.658;9.166;2023-04-01T02:26:05;8.10;1.00
6496;DHT22;3281;47.658;9.166;2023-04-01T02:28:32;8.10;1.00
6496;DHT22;3281;47.658;9.166;2023-04-01T02:31:00;8.10;1.00
6496;DHT22;3281;47.658;9.166;2023-04-01T02:33:29;8.10;1.00
6496;DHT22;3281;47.658;9.166;2023-04-01T02:35:56;8.10;1.00
6496;DHT22;3281;47.658;9.166;2023-04-01T02:38:23;8.10;1.00
6496;DHT22;3281;47.658;9.166;2023-04-01T02:40:56;8.10;1.00
6496;DHT22;3281;47.658;9.166;2023-04-01T02:43:25;8.10;1.00
6496;DHT22;3281;47.658;9.166;2023-04-01T02:45:52;8.10;1.00
6496;DHT22;3281;47.658;9.166;2023-04-01T02:48:18;8.10;1.00
6496;DHT22;3281;47.658;9.166;2023-04-01T02:50:45;8.10;1.00
6496;DHT22;3281;47.658;9.166;2023-04-01T02:53:12;8.00;1.00
6496;DHT22;3281;47.658;9.166;2023-04-01T02:55:39;8.10;1.00
6496;DHT22;3281;47.658;9.166;2023-04-01T02:58:06;8.10;1.00
6496;DHT22;3281;47.658;9.166;2023-04-01T03:00:34;8.10;1.00
6496;DHT22;3281;47.658;9.166;2023-04-01T03:03:00;8.10;1.00
6496;DHT22;3281;47.658;9.166;2023-04-01T03:05:28;8.20;1.00
6496;DHT22;3281;47.658;9.166;2023-04-01T03:07:54;8.10;1.00
6496;DHT22;3281;47.658;9.166;2023-04-01T03:10:21;8.10;1.00
6496;DHT22;3281;47.658;9.166;2023-04-01T03:12:48;8.20;1.00
6496;DHT22;3281;47.658;9.166;2023-04-01T03:15:14;8.20;1.00
6496;DHT22;3281;47.658;9.166;2023-04-01T03:17:42;8.10;1.00
6496;DHT22;3281;47.658;9.166;2023-04-01T03:20:10;8.10;1.00
6496;DHT22;3281;47.658;9.166;2023-04-01T03:22:37;8.10;1.00
6496;DHT22;3281;47.658;9.166;2023-04-01T03:25:05;8.00;1.00
6496;DHT22;3281;47.658;9.166;2023-04-01T03:27:33;8.10;1.00
6496;DHT22;3281;47.658;9.166;2023-04-01T03:29:59;8.10;1.00
6496;DHT22;3281;47.658;9.166;2023-04-01T03:32:26;8.10;1.00
6496;DHT22;3281;47.658;9.166;2023-04-01T03:34:54;8.10;1.00
6496;DHT22;3281;47.658;9.166;2023-04-01T03:37:22;8.10;1.00
6496;DHT22;3281;47.658;9.166;2023-04-01T03:39:49;8.10;1.00
6496;DHT22;3281;47.658;9.166;2023-04-01T03:42:15;8.20;1.00
6496;DHT22;3281;47.658;9.166;2023-04-01T03:44:42;8.10;1.00
6496;DHT22;3281;47.658;9.166;2023-04-01T03:47:09;8.20;1.00
6496;DHT22;3281;47.658;9.166;2023-04-01T03:49:35;8.20;1.00
6496;DHT22;3281;47.658;9.166;2023-04-01T03:52:03;8.20;1.00
6496;DHT22;3281;47.658;9.166;2023-04-01T03:54:30;8.20;1.00
6496;DHT22;3281;47.658;9.166;2023-04-01T03:56:57;8.20;1.00
6496;DHT22;3281;47.658;9.166;2023-04-01T03:59:24;8.30;1.00
6496;DHT22;3281;47.658;9.166;2023-04-01T04:01:51;8.30;1.00
6496;DHT22;3281;47.658;9.166;2023-04-01T04:04:18;8.20;1.00
6496;DHT22;3281;47.658;9.166;2023-04-01T04:06:44;8.20;1.00
6496;DHT22;3281;47.658;9.166;2023-04-01T04:09:12;8.20;1.00
6496;DHT22;3281;47.658;9.166;2023-04-01T04:11:39;8.20;1.00
6496;DHT22;3281;47.658;9.166;2023-04-01T04:14:06;8.20;1.00
6496;DHT22;3281;47.658;9.166;2023-04-01T04:16:34;8.30;1.00
6496;DHT22;3281;47.658;9.166;2023-04-01T04:19:02;8.30;1.00
6496;DHT22;3281;47.658;9.166;2023-04-01T04:21:28;8.30;1.00
6496;DHT22;3281;47.658;9.166;2023-04-01T04:23:55;8.20;1.00
6496;DHT22;3281;47.658;9.166;2023-04-01T04:26:23;8.10;1.00
6496;DHT22;3281;47.658;9.166;2023-04-01T04:28:51;8.20;1.00
6496;DHT22;3281;47.658;9.166;2023-04-01T04:31:19;8.20;1.00
6496;DHT22;3281;47.658;9.166;2023-04-01T04:33:46;8.30;1.00
6496;DHT22;3281;47.658;9.166;2023-04-01T04:36:13;8.20;1.00
6496;DHT22;3281;47.658;9.166;2023-04-01T04:38:40;8.20;1.00
6496;DHT22;3281;47.658;9.166;2023-04-01T04:41:09;8.20;1.00
6496;DHT22;3281;47.658;9.166;2023-04-01T04:43:38;8.30;1.00
6496;DHT22;3281;47.658;9.166;2023-04-01T04:46:06;8.20;1.00
6496;DHT22;3281;47.658;9.166;2023-04-01T04:48:32;8.20;1.00
6496;DHT22;3281;47.658;9.166;2023-04-01T04:50:59;8.20;1.00
6496;DHT22;3281;47.658;9.166;2023-04-01T04:53:26;8.10;1.00
6496;DHT22;3281;47.658;9.166;2023-04-01T04:55:53;8.10;1.00
6496;DHT22;3281;47.658;9.166;2023-04-01T04:58:20;8.00;1.00
6496;DHT22;3281;47.658;9.166;2023-04-01T05:00:48;7.90;1.00
6496;DHT22;3281;47.658;9.166;2023-04-01T05:03:15;7.80;1.00
6496;DHT22;3281;47.658;9.166;2023-04-01T05:05:48;7.80;1.00
6496;DHT22;3281;47.658;9.166;2023-04-01T05:08:16;7.70;1.00
6496;DHT22;3281;47.658;9.166;2023-04-01T05:10:43;7.70;1.00
6496;DHT22;3281;47.658;9.166;2023-04-01T05:13:11;7.70;1.00
6496;DHT22;3281;47.658;9.166;2023-04-01T05:15:37;7.70;1.00
6496;DHT22;3281;47.658;9.166;2023-04-01T05:18:06;7.80;1.00
6496;DHT22;3281;47.658;9.166;2023-04-01T05:20:32;7.80;1.00
6496;DHT22;3281;47.658;9.166;2023-04-01T05:22:59;7.80;1.00
6496;DHT22;3281;47.658;9.166;2023-04-01T05:25:26;7.90;1.00
6496;DHT22;3281;47.658;9.166;2023-04-01T05:27:53;7.90;1.00
6496;DHT22;3281;47.658;9.166;2023-04-01T05:30:20;7.80;1.00
6496;DHT22;3281;47.658;9.166;2023-04-01T05:32:47;7.90;1.00
6496;DHT22;3281;47.658;9.166;2023-04-01T05:35:15;7.80;1.00
6496;DHT22;3281;47.658;9.166;2023-04-01T05:37:42;7.80;1.00
6496;DHT22;3281;47.658;9.166;2023-04-01T05:40:09;7.80;1.00
6496;DHT22;3281;47.658;9.166;2023-04-01T05:42:36;7.80;1.00
6496;DHT22;3281;47.658;9.166;2023-04-01T05:45:04;8.00;1.00
6496;DHT22;3281;47.658;9.166;2023-04-01T05:47:30;8.00;1.00
6496;DHT22;3281;47.658;9.166;2023-04-01T05:49:57;8.00;1.00
6496;DHT22;3281;47.658;9.166;2023-04-01T05:52:25;8.10;1.00
6496;DHT22;3281;47.658;9.166;2023-04-01T05:54:52;8.10;1.00
6496;DHT22;3281;47.658;9.166;2023-04-01T05:57:19;8.20;1.00
6496;DHT22;3281;47.658;9.166;2023-04-01T05:59:46;8.30;1.00
6496;DHT22;3281;47.658;9.166;2023-04-01T06:02:13;8.30;1.00
6496;DHT22;3281;47.658;9.166;2023-04-01T06:04:43;8.40;1.00
6496;DHT22;3281;47.658;9.166;2023-04-01T06:07:11;8.20;1.00
6496;DHT22;3281;47.658;9.166;2023-04-01T06:09:40;8.20;1.00
6496;DHT22;3281;47.658;9.166;2023-04-01T06:12:20;8.30;1.00
6496;DHT22;3281;47.658;9.166;2023-04-01T06:14:55;8.30;1.00
6496;DHT22;3281;47.658;9.166;2023-04-01T06:17:32;8.30;1.00
6496;DHT22;3281;47.658;9.166;2023-04-01T06:20:11;8.30;1.00
6496;DHT22;3281;47.658;9.166;2023-04-01T06:22:53;8.40;1.00
6496;DHT22;3281;47.658;9.166;2023-04-01T06:28:52;8.40;1.00
6496;DHT22;3281;47.658;9.166;2023-04-01T06:31:35;8.40;1.00
6496;DHT22;3281;47.658;9.166;2023-04-01T06:34:19;8.50;1.00
6496;DHT22;3281;47.658;9.166;2023-04-01T06:37:05;8.60;1.00
6496;DHT22;3281;47.658;9.166;2023-04-01T06:39:56;8.70;1.00
6496;DHT22;3281;47.658;9.166;2023-04-01T06:42:42;8.70;1.00
6496;DHT22;3281;47.658;9.166;2023-04-01T06:45:26;8.80;1.00
6496;DHT22;3281;47.658;9.166;2023-04-01T06:48:09;8.90;1.00
6496;DHT22;3281;47.658;9.166;2023-04-01T06:50:43;8.90;1.00
6496;DHT22;3281;47.658;9.166;2023-04-01T06:53:15;8.90;1.00
6496;DHT22;3281;47.658;9.166;2023-04-01T06:55:46;8.90;1.00
6496;DHT22;3281;47.658;9.166;2023-04-01T06:58:20;8.90;1.00
6496;DHT22;3281;47.658;9.166;2023-04-01T07:00:50;8.90;1.00
6496;DHT22;3281;47.658;9.166;2023-04-01T07:03:21;8.90;1.00
6496;DHT22;3281;47.658;9.166;2023-04-01T07:05:49;9.00;1.00
6496;DHT22;3281;47.658;9.166;2023-04-01T07:08:20;9.10;1.00
6496;DHT22;3281;47.658;9.166;2023-04-01T07:10:50;9.10;1.00
6496;DHT22;3281;47.658;9.166;2023-04-01T07:13:25;9.20;1.00
6496;DHT22;3281;47.658;9.166;2023-04-01T07:16:01;9.20;1.00
6496;DHT22;3281;47.658;9.166;2023-04-01T07:18:32;9.20;1.00
6496;DHT22;3281;47.658;9.166;2023-04-01T07:21:01;9.30;1.00
6496;DHT22;3281;47.658;9.166;2023-04-01T07:23:31;9.40;1.00
6496;DHT22;3281;47.658;9.166;2023-04-01T07:26:01;9.40;1.00
6496;DHT22;3281;47.658;9.166;2023-04-01T07:28:32;9.40;1.00
6496;DHT22;3281;47.658;9.166;2023-04-01T07:31:07;9.50;1.00
6496;DHT22;3281;47.658;9.166;2023-04-01T07:33:41;9.60;1.00
6496;DHT22;3281;47.658;9.166;2023-04-01T07:36:14;9.70;1.00
6496;DHT22;3281;47.658;9.166;2023-04-01T07:38:52;9.70;1.00
6496;DHT22;3281;47.658;9.166;2023-04-01T07:41:28;9.70;1.00
6496;DHT22;3281;47.658;9.166;2023-04-01T07:44:08;9.70;1.00
6496;DHT22;3281;47.658;9.166;2023-04-01T07:46:47;9.50;1.00
6496;DHT22;3281;47.658;9.166;2023-04-01T07:49:22;9.50;1.00
6496;DHT22;3281;47.658;9.166;2023-04-01T07:51:56;9.60;1.00
6496;DHT22;3281;47.658;9.166;2023-04-01T07:54:30;9.70;1.00
6496;DHT22;3281;47.658;9.166;2023-04-01T07:57:02;9.70;1.00
6496;DHT22;3281;47.658;9.166;2023-04-01T07:59:39;9.80;1.00
6496;DHT22;3281;47.658;9.166;2023-04-01T08:02:18;9.80;1.00
6496;DHT22;3281;47.658;9.166;2023-04-01T08:04:55;9.80;1.00
6496;DHT22;3281;47.658;9.166;2023-04-01T08:07:30;9.90;1.00
6496;DHT22;3281;47.658;9.166;2023-04-01T08:10:05;9.80;1.00
6496;DHT22;3281;47.658;9.166;2023-04-01T08:12:43;9.80;1.00
6496;DHT22;3281;47.658;9.166;2023-04-01T08:15:20;9.90;1.00
6496;DHT22;3281;47.658;9.166;2023-04-01T08:18:01;9.90;1.00
6496;DHT22;3281;47.658;9.166;2023-04-01T08:20:36;10.00;1.00
6496;DHT22;3281;47.658;9.166;2023-04-01T08:23:07;9.90;1.00
6496;DHT22;3281;47.658;9.166;2023-04-01T08:25:39;9.80;1.00
6496;DHT22;3281;47.658;9.166;2023-04-01T08:28:13;9.70;1.00
6496;DHT22;3281;47.658;9.166;2023-04-01T08:30:44;9.50;1.00
6496;DHT22;3281;47.658;9.166;2023-04-01T08:33:17;9.50;1.00
6496;DHT22;3281;47.658;9.166;2023-04-01T08:35:49;9.50;1.00
6496;DHT22;3281;47.658;9.166;2023-04-01T08:38:22;9.50;1.00
6496;DHT22;3281;47.658;9.166;2023-04-01T08:43:51;9.60;1.00
6496;DHT22;3281;47.658;9.166;2023-04-01T08:46:52;9.60;1.00
6496;DHT22;3281;47.658;9.166;2023-04-01T08:49:33;9.50;1.00
6496;DHT22;3281;47.658;9.166;2023-04-01T08:52:18;9.50;1.00
6496;DHT22;3281;47.658;9.166;2023-04-01T08:55:26;9.50;1.00
6496;DHT22;3281;47.658;9.166;2023-04-01T08:58:07;9.40;1.00
6496;DHT22;3281;47.658;9.166;2023-04-01T09:00:45;9.40;1.00
6496;DHT22;3281;47.658;9.166;2023-04-01T09:03:36;9.40;1.00
6496;DHT22;3281;47.658;9.166;2023-04-01T09:06:35;9.40;1.00
6496;DHT22;3281;47.658;9.166;2023-04-01T09:12:17;9.30;1.00
6496;DHT22;3281;47.658;9.166;2023-04-01T09:15:15;9.30;1.00
6496;DHT22;3281;47.658;9.166;2023-04-01T09:17:59;9.20;1.00
6496;DHT22;3281;47.658;9.166;2023-04-01T09:23:43;9.30;1.00
6496;DHT22;3281;47.658;9.166;2023-04-01T09:26:24;9.20;1.00
6496;DHT22;3281;47.658;9.166;2023-04-01T09:29:02;9.20;1.00
6496;DHT22;3281;47.658;9.166;2023-04-01T09:31:56;9.20;1.00
6496;DHT22;3281;47.658;9.166;2023-04-01T09:34:51;9.20;1.00
6496;DHT22;3281;47.658;9.166;2023-04-01T09:37:21;9.30;1.00
6496;DHT22;3281;47.658;9.166;2023-04-01T09:42:44;9.30;1.00
6496;DHT22;3281;47.658;9.166;2023-04-01T09:45:32;9.40;1.00
6496;DHT22;3281;47.658;9.166;2023-04-01T09:48:08;9.50;1.00
6496;DHT22;3281;47.658;9.166;2023-04-01T09:50:45;9.50;1.00
6496;DHT22;3281;47.658;9.166;2023-04-01T09:53:24;9.50;1.00
6496;DHT22;3281;47.658;9.166;2023-04-01T09:56:27;9.60;1.00
6496;DHT22;3281;47.658;9.166;2023-04-01T09:59:15;9.60;1.00
6496;DHT22;3281;47.658;9.166;2023-04-01T10:02:03;9.60;1.00
6496;DHT22;3281;47.658;9.166;2023-04-01T10:04:55;9.60;1.00
6496;DHT22;3281;47.658;9.166;2023-04-01T10:07:53;9.60;1.00
6496;DHT22;3281;47.658;9.166;2023-04-01T10:10:51;9.70;1.00
6496;DHT22;3281;47.658;9.166;2023-04-01T10:13:59;9.90;1.00
6496;DHT22;3281;47.658;9.166;2023-04-01T10:17:00;9.70;1.00
6496;DHT22;3281;47.658;9.166;2023-04-01T10:19:50;9.90;1.00
6496;DHT22;3281;47.658;9.166;2023-04-01T10:25:52;10.00;1.00
6496;DHT22;3281;47.658;9.166;2023-04-01T10:28:41;10.10;1.00
6496;DHT22;3281;47.658;9.166;2023-04-01T10:38:04;10.10;1.00
6496;DHT22;3281;47.658;9.166;2023-04-01T10:40:54;10.10;1.00
6496;DHT22;3281;47.658;9.166;2023-04-01T10:43:48;10.00;1.00
6496;DHT22;3281;47.658;9.166;2023-04-01T10:49:46;10.10;1.00
6496;DHT22;3281;47.658;9.166;2023-04-01T10:52:44;10.30;1.00
6496;DHT22;3281;47.658;9.166;2023-04-01T10:55:29;10.40;1.00
6496;DHT22;3281;47.658;9.166;2023-04-01T10:58:26;10.40;1.00
6496;DHT22;3281;47.658;9.166;2023-04-01T11:07:28;10.40;1.00
6496;DHT22;3281;47.658;9.166;2023-04-01T11:16:57;10.70;1.00
6496;DHT22;3281;47.658;9.166;2023-04-01T11:25:39;11.00;1.00
6496;DHT22;3281;47.658;9.166;2023-04-01T11:31:17;10.90;1.00
6496;DHT22;3281;47.658;9.166;2023-04-01T11:33:54;11.00;1.00
6496;DHT22;3281;47.658;9.166;2023-04-01T11:36:35;11.00;1.00
6496;DHT22;3281;47.658;9.166;2023-04-01T11:39:14;11.00;1.00
6496;DHT22;3281;47.658;9.166;2023-04-01T11:41:51;11.00;1.00
6496;DHT22;3281;47.658;9.166;2023-04-01T11:44:25;10.90;1.00
6496;DHT22;3281;47.658;9.166;2023-04-01T11:47:05;10.90;1.00
6496;DHT22;3281;47.658;9.166;2023-04-01T11:49:48;10.80;1.00
6496;DHT22;3281;47.658;9.166;2023-04-01T11:55:31;11.00;1.00
6496;DHT22;3281;47.658;9.166;2023-04-01T11:58:12;11.10;1.00
6496;DHT22;3281;47.658;9.166;2023-04-01T12:03:51;11.40;1.00
6496;DHT22;3281;47.658;9.166;2023-04-01T12:06:29;11.60;1.00
6496;DHT22;3281;47.658;9.166;2023-04-01T12:09:03;11.40;1.00
6496;DHT22;3281;47.658;9.166;2023-04-01T12:11:38;11.50;1.00
6496;DHT22;3281;47.658;9.166;2023-04-01T12:14:14;11.50;1.00
6496;DHT22;3281;47.658;9.166;2023-04-01T12:16:50;11.40;1.00
6496;DHT22;3281;47.658;9.166;2023-04-01T12:19:26;11.40;1.00
6496;DHT22;3281;47.658;9.166;2023-04-01T12:22:10;11.60;1.00
6496;DHT22;3281;47.658;9.166;2023-04-01T12:24:49;11.20;1.00
6496;DHT22;3281;47.658;9.166;2023-04-01T12:27:39;11.30;1.00
6496;DHT22;3281;47.658;9.166;2023-04-01T12:33:52;11.20;1.00
6496;DHT22;3281;47.658;9.166;2023-04-01T12:36:38;11.00;1.00
6496;DHT22;3281;47.658;9.166;2023-04-01T12:39:22;10.90;1.00
6496;DHT22;3281;47.658;9.166;2023-04-01T12:42:02;10.80;1.00
6496;DHT22;3281;47.658;9.166;2023-04-01T12:44:41;10.50;1.00
6496;DHT22;3281;47.658;9.166;2023-04-01T12:47:37;10.60;1.00
6496;DHT22;3281;47.658;9.166;2023-04-01T12:53:16;11.40;1.00
6496;DHT22;3281;47.658;9.166;2023-04-01T12:55:48;11.90;1.00
6496;DHT22;3281;47.658;9.166;2023-04-01T12:58:41;11.70;1.00
6496;DHT22;3281;47.658;9.166;2023-04-01T13:01:25;11.50;1.00
6496;DHT22;3281;47.658;9.166;2023-04-01T13:07:10;11.10;1.00
6496;DHT22;3281;47.658;9.166;2023-04-01T13:09:45;10.80;1.00
6496;DHT22;3281;47.658;9.166;2023-04-01T13:12:47;10.90;1.00
6496;DHT22;3281;47.658;9.166;2023-04-01T13:15:32;10.70;1.00
6496;DHT22;3281;47.658;9.166;2023-04-01T13:18:12;10.80;1.00
6496;DHT22;3281;47.658;9.166;2023-04-01T13:20:45;10.90;1.00
6496;DHT22;3281;47.658;9.166;2023-04-01T13:23:25;10.90;1.00
6496;DHT22;3281;47.658;9.166;2023-04-01T13:26:06;10.60;1.00
6496;DHT22;3281;47.658;9.166;2023-04-01T13:28:39;10.70;1.00
6496;DHT22;3281;47.658;9.166;2023-04-01T13:31:21;10.70;1.00
6496;DHT22;3281;47.658;9.166;2023-04-01T13:34:00;10.60;1.00
6496;DHT22;3281;47.658;9.166;2023-04-01T13:36:36;10.50;1.00
6496;DHT22;3281;47.658;9.166;2023-04-01T13:39:17;10.70;1.00
6496;DHT22;3281;47.658;9.166;2023-04-01T13:44:38;10.70;1.00
6496;DHT22;3281;47.658;9.166;2023-04-01T13:47:17;10.70;1.00
6496;DHT22;3281;47.658;9.166;2023-04-01T13:50:01;10.70;1.00
6496;DHT22;3281;47.658;9.166;2023-04-01T13:52:54;10.80;1.00
6496;DHT22;3281;47.658;9.166;2023-04-01T13:55:39;10.90;1.00
6496;DHT22;3281;47.658;9.166;2023-04-01T13:58:31;10.80;1.00
6496;DHT22;3281;47.658;9.166;2023-04-01T14:01:09;10.80;1.00
6496;DHT22;3281;47.658;9.166;2023-04-01T14:03:54;10.90;1.00
6496;DHT22;3281;47.658;9.166;2023-04-01T14:06:31;11.00;1.00
6496;DHT22;3281;47.658;9.166;2023-04-01T14:09:29;11.00;1.00
6496;DHT22;3281;47.658;9.166;2023-04-01T14:12:04;11.00;1.00
6496;DHT22;3281;47.658;9.166;2023-04-01T14:14:41;10.90;1.00
6496;DHT22;3281;47.658;9.166;2023-04-01T14:17:29;10.90;1.00
6496;DHT22;3281;47.658;9.166;2023-04-01T14:20:19;10.90;1.00
6496;DHT22;3281;47.658;9.166;2023-04-01T14:22:57;10.80;1.00
6496;DHT22;3281;47.658;9.166;2023-04-01T14:25:39;10.70;1.00
6496;DHT22;3281;47.658;9.166;2023-04-01T14:28:18;10.60;1.00
6496;DHT22;3281;47.658;9.166;2023-04-01T14:31:11;10.70;1.00
6496;DHT22;3281;47.658;9.166;2023-04-01T14:33:47;10.80;1.00
6496;DHT22;3281;47.658;9.166;2023-04-01T14:36:42;10.90;1.00
6496;DHT22;3281;47.658;9.166;2023-04-01T14:39:33;11.20;1.00
6496;DHT22;3281;47.658;9.166;2023-04-01T14:42:18;11.30;1.00
6496;DHT22;3281;47.658;9.166;2023-04-01T14:45:02;11.30;1.00
6496;DHT22;3281;47.658;9.166;2023-04-01T14:47:43;11.20;1.00
6496;DHT22;3281;47.658;9.166;2023-04-01T14:50:17;11.10;1.00
6496;DHT22;3281;47.658;9.166;2023-04-01T14:52:50;10.80;1.00
6496;DHT22;3281;47.658;9.166;2023-04-01T14:55:31;10.40;1.00
6496;DHT22;3281;47.658;9.166;2023-04-01T14:58:10;10.30;1.00
6496;DHT22;3281;47.658;9.166;2023-04-01T15:00:47;10.50;1.00
6496;DHT22;3281;47.658;9.166;2023-04-01T15:03:19;10.70;1.00
6496;DHT22;3281;47.658;9.166;2023-04-01T15:05:54;10.80;1.00
6496;DHT22;3281;47.658;9.166;2023-04-01T15:08:24;10.80;1.00
6496;DHT22;3281;47.658;9.166;2023-04-01T15:11:14;10.90;1.00
6496;DHT22;3281;47.658;9.166;2023-04-01T15:14:13;10.80;1.00
6496;DHT22;3281;47.658;9.166;2023-04-01T15:16:51;10.80;1.00
6496;DHT22;3281;47.658;9.166;2023-04-01T15:19:26;10.80;1.00
6496;DHT22;3281;47.658;9.166;2023-04-01T15:25:01;10.80;1.00
6496;DHT22;3281;47.658;9.166;2023-04-01T15:27:37;10.80;1.00
6496;DHT22;3281;47.658;9.166;2023-04-01T15:30:31;10.70;1.00
6496;DHT22;3281;47.658;9.166;2023-04-01T15:33:15;10.40;1.00
6496;DHT22;3281;47.658;9.166;2023-04-01T15:35:48;10.20;1.00
6496;DHT22;3281;47.658;9.166;2023-04-01T15:38:26;10.10;1.00
6496;DHT22;3281;47.658;9.166;2023-04-01T15:40:58;10.00;1.00
6496;DHT22;3281;47.658;9.166;2023-04-01T15:43:34;10.00;1.00
6496;DHT22;3281;47.658;9.166;2023-04-01T15:46:20;10.00;1.00
6496;DHT22;3281;47.658;9.166;2023-04-01T15:48:57;10.10;1.00
6496;DHT22;3281;47.658;9.166;2023-04-01T15:51:41;10.20;1.00
6496;DHT22;3281;47.658;9.166;2023-04-01T15:54:40;10.10;1.00
6496;DHT22;3281;47.658;9.166;2023-04-01T15:57:20;10.10;1.00
6496;DHT22;3281;47.658;9.166;2023-04-01T16:00:04;10.20;1.00
6496;DHT22;3281;47.658;9.166;2023-04-01T16:02:36;10.20;1.00
6496;DHT22;3281;47.658;9.166;2023-04-01T16:05:09;10.40;1.00
6496;DHT22;3281;47.658;9.166;2023-04-01T16:07:52;10.40;1.00
6496;DHT22;3281;47.658;9.166;2023-04-01T16:10:47;10.50;1.00
6496;DHT22;3281;47.658;9.166;2023-04-01T16:13:28;10.60;1.00
6496;DHT22;3281;47.658;9.166;2023-04-01T16:16:07;10.60;1.00
6496;DHT22;3281;47.658;9.166;2023-04-01T16:18:52;10.60;1.00
6496;DHT22;3281;47.658;9.166;2023-04-01T16:21:33;10.50;1.00
6496;DHT22;3281;47.658;9.166;2023-04-01T16:24:10;10.50;1.00
6496;DHT22;3281;47.658;9.166;2023-04-01T16:26:46;10.50;1.00
6496;DHT22;3281;47.658;9.166;2023-04-01T16:29:24;10.50;1.00
6496;DHT22;3281;47.658;9.166;2023-04-01T16:31:57;10.50;1.00
6496;DHT22;3281;47.658;9.166;2023-04-01T16:34:32;10.50;1.00
6496;DHT22;3281;47.658;9.166;2023-04-01T16:37:07;10.60;1.00
6496;DHT22;3281;47.658;9.166;2023-04-01T16:39:44;10.50;1.00
6496;DHT22;3281;47.658;9.166;2023-04-01T16:42:22;10.50;1.00
6496;DHT22;3281;47.658;9.166;2023-04-01T16:44:54;10.50;1.00
6496;DHT22;3281;47.658;9.166;2023-04-01T16:47:23;10.50;1.00
6496;DHT22;3281;47.658;9.166;2023-04-01T16:49:59;10.50;1.00
6496;DHT22;3281;47.658;9.166;2023-04-01T16:52:35;10.50;1.00
6496;DHT22;3281;47.658;9.166;2023-04-01T16:55:12;10.50;1.00
6496;DHT22;3281;47.658;9.166;2023-04-01T16:57:48;10.50;1.00
6496;DHT22;3281;47.658;9.166;2023-04-01T17:00:23;10.60;1.00
6496;DHT22;3281;47.658;9.166;2023-04-01T17:02:58;10.50;1.00
6496;DHT22;3281;47.658;9.166;2023-04-01T17:05:39;10.50;1.00
6496;DHT22;3281;47.658;9.166;2023-04-01T17:08:15;10.50;1.00
6496;DHT22;3281;47.658;9.166;2023-04-01T17:10:48;10.50;1.00
6496;DHT22;3281;47.658;9.166;2023-04-01T17:13:35;10.40;1.00
6496;DHT22;3281;47.658;9.166;2023-04-01T17:16:19;10.40;1.00
6496;DHT22;3281;47.658;9.166;2023-04-01T17:18:56;10.40;1.00
6496;DHT22;3281;47.658;9.166;2023-04-01T17:21:31;10.40;1.00
6496;DHT22;3281;47.658;9.166;2023-04-01T17:24:06;10.40;1.00
6496;DHT22;3281;47.658;9.166;2023-04-01T17:26:41;10.40;1.00
6496;DHT22;3281;47.658;9.166;2023-04-01T17:29:21;10.40;1.00
6496;DHT22;3281;47.658;9.166;2023-04-01T17:31:54;10.40;1.00
6496;DHT22;3281;47.658;9.166;2023-04-01T17:34:42;10.40;1.00
6496;DHT22;3281;47.658;9.166;2023-04-01T17:37:22;10.40;1.00
6496;DHT22;3281;47.658;9.166;2023-04-01T17:40:14;10.20;1.00
6496;DHT22;3281;47.658;9.166;2023-04-01T17:42:48;10.30;1.00
6496;DHT22;3281;47.658;9.166;2023-04-01T17:45:26;10.20;1.00
6496;DHT22;3281;47.658;9.166;2023-04-01T17:48:03;10.20;1.00
6496;DHT22;3281;47.658;9.166;2023-04-01T17:50:52;10.20;1.00
6496;DHT22;3281;47.658;9.166;2023-04-01T17:53:30;10.20;1.00
6496;DHT22;3281;47.658;9.166;2023-04-01T17:56:12;10.20;1.00
6496;DHT22;3281;47.658;9.166;2023-04-01T17:58:45;10.20;1.00
6496;DHT22;3281;47.658;9.166;2023-04-01T18:01:26;10.20;1.00
6496;DHT22;3281;47.658;9.166;2023-04-01T18:04:24;10.10;1.00
6496;DHT22;3281;47.658;9.166;2023-04-01T18:09:57;10.00;1.00
6496;DHT22;3281;47.658;9.166;2023-04-01T18:12:32;10.00;1.00
6496;DHT22;3281;47.658;9.166;2023-04-01T18:15:13;10.00;1.00
6496;DHT22;3281;47.658;9.166;2023-04-01T18:17:55;10.00;1.00
6496;DHT22;3281;47.658;9.166;2023-04-01T18:20:31;10.00;1.00
6496;DHT22;3281;47.658;9.166;2023-04-01T18:23:02;9.90;1.00
6496;DHT22;3281;47.658;9.166;2023-04-01T18:25:33;9.90;1.00
6496;DHT22;3281;47.658;9.166;2023-04-01T18:28:17;9.90;1.00
6496;DHT22;3281;47.658;9.166;2023-04-01T18:30:51;9.90;1.00
6496;DHT22;3281;47.658;9.166;2023-04-01T18:33:24;9.80;1.00
6496;DHT22;3281;47.658;9.166;2023-04-01T18:35:56;9.80;1.00
6496;DHT22;3281;47.658;9.166;2023-04-01T18:38:28;9.80;1.00
6496;DHT22;3281;47.658;9.166;2023-04-01T18:41:12;9.70;1.00